Kinuura Maru — JD2329 — position and weather

sailwx.info

Track history (hours):
 
Tides and Currents Weather Stations Pressure Air Temp Water Temp Dewpoint Dewpoint Depression Visibility Wind Speed Wind Dir Waves Ship Positions

Kinuura Maru

Last reported at 2017-Nov-23 09:02 UTC. Time now 2017-Nov-24 13:12 UTC.
Position N 33°54' E 134°57'.

Length 165 m; draft 6.5 m.

Type: Cargo ship. MMSI: 431101175.

Date/timePositionNaut miles runAvg speedWind from/ knotsBaromVisibWave heightAir tempDewpointWater temp
2017-Nov-23 09:02N 33°54' E 134°57'216.4
2017-Nov-23 08:56N 33°55' E 134°57'716.3
2017-Nov-23 08:30N 34°02' E 134°57'816.6
2017-Nov-23 08:00N 34°11' E 134°58'917.2
2017-Nov-23 07:29N 34°20' E 134°59'816.8
2017-Nov-23 07:00N 34°28' E 135°01'816.5
2017-Nov-23 06:30N 34°36' E 135°03'816.0
2017-Nov-23 06:00N 34°35' E 134°53'  
2017-Nov-19 12:41N 34°51' E 139°18'317.5
2017-Nov-19 12:30N 34°53' E 139°21'918.2
2017-Nov-19 12:00N 34°58' E 139°30'918.2
2017-Nov-19 11:30N 35°04' E 139°39'816.8
2017-Nov-19 11:00N 35°10' E 139°45'613.0
2017-Nov-19 10:30N 35°17' E 139°45'713.5
2017-Nov-19 10:00N 35°23' E 139°41'2 4.2
2017-Nov-19 09:30N 35°23' E 139°39'0 0.0
2017-Nov-19 08:59N 35°23' E 139°39'0 0.0
2017-Nov-19 08:29N 35°23' E 139°39'0 0.0
2017-Nov-19 07:59N 35°23' E 139°39'0 0.0
2017-Nov-19 07:29N 35°23' E 139°39'0 0.0
2017-Nov-19 06:59N 35°23' E 139°39'0 0.0
2017-Nov-19 06:29N 35°23' E 139°39'0 0.0
2017-Nov-19 05:59N 35°23' E 139°39'0 0.0
2017-Nov-19 05:29N 35°23' E 139°39'0 0.0
2017-Nov-19 04:59N 35°23' E 139°39'0 0.4
2017-Nov-19 04:31N 35°24' E 139°39'714.5
2017-Nov-19 04:01N 35°27' E 139°47'1020.1
2017-Nov-19 03:30N 35°33' E 139°57'714.2
2017-Nov-19 03:00N 35°35' E 140°05'0 0.1
2017-Nov-18 20:20N 35°36' E 140°05'3 8.0
2017-Nov-18 20:00N 35°35' E 140°02'917.9
2017-Nov-18 19:30N 35°30' E 139°53'815.3
2017-Nov-18 19:01N 35°24' E 139°46'612.2
2017-Nov-18 18:30N 35°19' E 139°44'612.3
2017-Nov-18 18:00N 35°13' E 139°47'816.0
2017-Nov-18 17:30N 35°05' E 139°44'816.6
2017-Nov-18 17:00N 34°59' E 139°37'1016.5
2017-Nov-18 16:25N 34°54' E 139°28'231 7.2
2017-Nov-17 08:32N 33°57' E 134°56'115.8
2017-Nov-17 08:28N 33°58' E 134°56'715.6
2017-Nov-17 08:00N 34°05' E 134°57'815.7
2017-Nov-17 07:30N 34°13' E 134°58'815.6
2017-Nov-17 07:00N 34°21' E 134°59'815.5
2017-Nov-17 06:30N 34°28' E 135°01'815.2
2017-Nov-17 06:00N 34°36' E 135°03'  
2017-Nov-14 20:32N 34°34' E 134°50'123.0
2017-Nov-14 20:29N 34°35' E 134°52'1020.7
2017-Nov-14 20:00N 34°36' E 135°04'1019.1
2017-Nov-14 19:30N 34°26' E 135°03'1020.9
2017-Nov-14 19:00N 34°16' E 134°59'1020.1
2017-Nov-14 18:30N 34°07' E 134°59'  
Track history (hours):
 
Tides and Currents Weather Stations Pressure Air Temp Water Temp Dewpoint Dewpoint Depression Visibility Wind Speed Wind Dir Waves Ship Positions

Kinuura Maru

Last reported at 2017-Nov-23 09:02 UTC. Time now 2017-Nov-24 13:12 UTC.
Position N 33°54' E 134°57'.

Length 165 m; draft 6.5 m.

Type: Cargo ship. MMSI: 431101175.

Date/timePositionNaut miles runAvg speedWind from/ knotsBaromVisibWave heightAir tempDewpointWater temp
2017-Nov-23 09:02N 33°54' E 134°57'216.4
2017-Nov-23 08:56N 33°55' E 134°57'716.3
2017-Nov-23 08:30N 34°02' E 134°57'816.6
2017-Nov-23 08:00N 34°11' E 134°58'917.2
2017-Nov-23 07:29N 34°20' E 134°59'816.8
2017-Nov-23 07:00N 34°28' E 135°01'816.5
2017-Nov-23 06:30N 34°36' E 135°03'816.0
2017-Nov-23 06:00N 34°35' E 134°53'  
2017-Nov-19 12:41N 34°51' E 139°18'317.5
2017-Nov-19 12:30N 34°53' E 139°21'918.2
2017-Nov-19 12:00N 34°58' E 139°30'918.2
2017-Nov-19 11:30N 35°04' E 139°39'816.8
2017-Nov-19 11:00N 35°10' E 139°45'613.0
2017-Nov-19 10:30N 35°17' E 139°45'713.5
2017-Nov-19 10:00N 35°23' E 139°41'2 4.2
2017-Nov-19 09:30N 35°23' E 139°39'0 0.0
2017-Nov-19 08:59N 35°23' E 139°39'0 0.0
2017-Nov-19 08:29N 35°23' E 139°39'0 0.0
2017-Nov-19 07:59N 35°23' E 139°39'0 0.0
2017-Nov-19 07:29N 35°23' E 139°39'0 0.0
2017-Nov-19 06:59N 35°23' E 139°39'0 0.0
2017-Nov-19 06:29N 35°23' E 139°39'0 0.0
2017-Nov-19 05:59N 35°23' E 139°39'0 0.0
2017-Nov-19 05:29N 35°23' E 139°39'0 0.0
2017-Nov-19 04:59N 35°23' E 139°39'0 0.4
2017-Nov-19 04:31N 35°24' E 139°39'714.5
2017-Nov-19 04:01N 35°27' E 139°47'1020.1
2017-Nov-19 03:30N 35°33' E 139°57'714.2
2017-Nov-19 03:00N 35°35' E 140°05'0 0.1
2017-Nov-18 20:20N 35°36' E 140°05'3 8.0
2017-Nov-18 20:00N 35°35' E 140°02'917.9
2017-Nov-18 19:30N 35°30' E 139°53'815.3
2017-Nov-18 19:01N 35°24' E 139°46'612.2
2017-Nov-18 18:30N 35°19' E 139°44'612.3
2017-Nov-18 18:00N 35°13' E 139°47'816.0
2017-Nov-18 17:30N 35°05' E 139°44'816.6
2017-Nov-18 17:00N 34°59' E 139°37'1016.5
2017-Nov-18 16:25N 34°54' E 139°28'231 7.2
2017-Nov-17 08:32N 33°57' E 134°56'115.8
2017-Nov-17 08:28N 33°58' E 134°56'715.6
2017-Nov-17 08:00N 34°05' E 134°57'815.7
2017-Nov-17 07:30N 34°13' E 134°58'815.6
2017-Nov-17 07:00N 34°21' E 134°59'815.5
2017-Nov-17 06:30N 34°28' E 135°01'815.2
2017-Nov-17 06:00N 34°36' E 135°03'  
2017-Nov-14 20:32N 34°34' E 134°50'123.0
2017-Nov-14 20:29N 34°35' E 134°52'1020.7
2017-Nov-14 20:00N 34°36' E 135°04'1019.1
2017-Nov-14 19:30N 34°26' E 135°03'1020.9
2017-Nov-14 19:00N 34°16' E 134°59'1020.1
2017-Nov-14 18:30N 34°07' E 134°59'  

Dump ship's entire track history